Terminal Aerodrome Forecast
Issued by NWS Twin Cities, MN

Home | Current Version | Previous Version | Graphics & Text | Print | Product List | Glossary On
Versions: 1 2 3 4 5 6 7 8 9 10 11 12 13 14 15 16 17 18 19 20 21 22 23 24 25 26 27 28
000
FTUS43 KMPX 242055 AAA
TAFMSP
TAF AMD
KMSP 242055Z 2421/2524 30018G25KT P6SM BKN060
     FM250100 31009KT P6SM BKN060
     FM250300 30006KT P6SM SCT050
     FM250600 30006KT P6SM FEW050
     FM251500 32012KT P6SM SKC=

USA.gov is the U.S. government's official web portal to all federal, state and local government web resources and services.